createdAt,value
2023-02-11T00:03:59.265Z,47.70
2023-02-11T00:09:01.697Z,47.05
2023-02-11T00:14:05.857Z,51.20
2023-02-11T00:19:07.522Z,46.65
2023-02-11T00:24:09.116Z,47.13
2023-02-11T00:29:10.722Z,45.45
2023-02-11T00:34:12.337Z,48.20
2023-02-11T00:39:13.928Z,49.25
2023-02-11T00:44:15.614Z,45.88
2023-02-11T00:49:17.472Z,44.63
2023-02-11T00:54:19.073Z,47.20
2023-02-11T00:59:20.655Z,44.35
2023-02-11T01:04:22.246Z,43.58
2023-02-11T01:09:23.849Z,43.25
2023-02-11T01:14:25.546Z,48.72
2023-02-11T01:19:27.142Z,48.60
2023-02-11T01:24:28.863Z,42.97
2023-02-11T01:29:30.648Z,43.83
2023-02-11T01:34:32.339Z,43.38
2023-02-11T01:39:34.629Z,43.90
2023-02-11T01:44:39.159Z,43.95
2023-02-11T01:49:46.582Z,44.22
2023-02-11T01:55:11.989Z,42.53
2023-02-11T02:00:31.535Z,45.70
2023-02-11T02:05:51.376Z,46.22
2023-02-11T02:10:56.578Z,42.35
2023-02-11T02:16:01.247Z,49.72
2023-02-11T02:21:21.434Z,44.75
2023-02-11T02:26:52.480Z,46.22
2023-02-11T02:32:31.271Z,49.77
2023-02-11T02:37:45.038Z,47.75
2023-02-11T02:42:48.055Z,44.38
2023-02-11T02:47:49.692Z,44.67
2023-02-11T02:53:00.035Z,44.13
2023-02-11T02:58:32.773Z,50.33
2023-02-11T03:03:49.551Z,43.17
2023-02-11T03:09:01.051Z,42.10
2023-02-11T03:14:04.633Z,45.53
2023-02-11T03:19:14.351Z,47.78
2023-02-11T03:24:30.985Z,46.53
2023-02-11T03:29:41.632Z,44.45
2023-02-11T03:35:10.778Z,46.33
2023-02-11T03:40:22.251Z,48.85
2023-02-11T03:45:25.689Z,45.67
2023-02-11T03:50:30.812Z,45.05
2023-02-11T03:55:39.266Z,46.47
2023-02-11T04:00:42.906Z,49.13
2023-02-11T04:05:44.647Z,45.28
2023-02-11T04:10:46.377Z,47.08
2023-02-11T04:15:49.131Z,51.17
2023-02-11T04:20:51.109Z,51.97
2023-02-11T04:25:52.921Z,51.58
2023-02-11T04:30:55.122Z,45.60
2023-02-11T04:35:59.585Z,45.97
2023-02-11T04:41:01.321Z,47.45
2023-02-11T04:46:02.963Z,46.35
2023-02-11T04:51:04.894Z,46.38
2023-02-11T04:56:07.057Z,52.30
2023-02-11T05:01:12.115Z,50.47
2023-02-11T05:06:13.875Z,46.42
2023-02-11T05:11:21.694Z,50.55
2023-02-11T05:16:23.593Z,46.05
2023-02-11T05:21:25.320Z,53.08
2023-02-11T05:26:27.011Z,49.03
2023-02-11T05:31:28.682Z,51.97
2023-02-11T05:36:33.344Z,47.70
2023-02-11T05:41:35.145Z,51.78
2023-02-11T05:46:36.779Z,56.15
2023-02-11T05:51:38.478Z,54.85
2023-02-11T05:56:40.055Z,53.35
2023-02-11T06:01:41.817Z,55.60
2023-02-11T06:06:43.479Z,54.25
2023-02-11T06:11:45.104Z,58.28
2023-02-11T06:16:46.730Z,55.45
2023-02-11T06:21:48.343Z,52.85
2023-02-11T06:26:49.948Z,56.53
2023-02-11T06:31:51.601Z,61.85
2023-02-11T06:36:53.246Z,58.65
2023-02-11T06:41:54.949Z,56.13
2023-02-11T06:46:56.618Z,59.78
2023-02-11T06:51:58.262Z,64.78
2023-02-11T06:56:59.887Z,65.18
2023-02-11T07:02:01.526Z,57.33
2023-02-11T07:07:03.211Z,59.38
2023-02-11T07:12:04.980Z,64.78
2023-02-11T07:17:06.609Z,62.00
2023-02-11T07:22:08.328Z,62.00
2023-02-11T07:27:09.939Z,59.90
2023-02-11T07:32:11.825Z,51.83
2023-02-11T07:37:13.454Z,56.63
2023-02-11T07:42:15.734Z,58.88
2023-02-11T07:47:17.358Z,58.15
2023-02-11T07:52:19.075Z,61.10
2023-02-11T07:57:20.678Z,55.33
2023-02-11T08:02:23.118Z,54.95
2023-02-11T08:07:24.825Z,49.80
2023-02-11T08:12:26.410Z,50.95
2023-02-11T08:17:28.148Z,49.80
2023-02-11T08:22:32.628Z,50.00
2023-02-11T08:27:34.545Z,46.78
2023-02-11T08:32:36.341Z,50.65
2023-02-11T08:37:38.413Z,49.25
2023-02-11T08:42:40.189Z,46.55
2023-02-11T08:47:41.853Z,47.78
2023-02-11T08:52:44.644Z,43.88
2023-02-11T08:57:46.311Z,45.97
2023-02-11T09:02:47.993Z,44.35
2023-02-11T09:07:49.651Z,45.53
2023-02-11T09:12:51.331Z,45.38
2023-02-11T09:17:53.152Z,48.95
2023-02-11T09:22:57.620Z,46.00
2023-02-11T09:27:59.223Z,54.97
2023-02-11T09:33:00.861Z,51.80
2023-02-11T09:38:02.474Z,48.03
2023-02-11T09:43:21.102Z,48.55
2023-02-11T09:48:23.564Z,46.75
2023-02-11T09:53:43.147Z,47.03
2023-02-11T09:58:45.669Z,47.95
2023-02-11T10:04:09.187Z,49.60
2023-02-11T10:09:17.167Z,55.92
2023-02-11T10:14:47.390Z,52.85
2023-02-11T10:20:01.084Z,54.45
2023-02-11T10:25:17.258Z,57.88
2023-02-11T10:30:32.512Z,50.40
2023-02-11T10:35:34.202Z,55.28
2023-02-11T10:40:35.852Z,56.42
2023-02-11T10:45:43.423Z,58.10
2023-02-11T10:50:45.060Z,54.67
2023-02-11T10:55:57.514Z,54.58
2023-02-11T11:01:00.476Z,45.45
2023-02-11T11:06:05.568Z,41.33
2023-02-11T11:11:13.115Z,41.33
2023-02-11T11:16:14.923Z,41.03
2023-02-11T11:21:22.675Z,39.25
2023-02-11T11:26:27.694Z,45.97
2023-02-11T11:31:37.048Z,45.88
2023-02-11T11:36:39.971Z,39.70
2023-02-11T11:41:51.622Z,41.03
2023-02-11T11:47:11.265Z,41.95
2023-02-11T11:52:37.786Z,39.25
2023-02-11T11:57:39.739Z,38.80
2023-02-11T12:02:50.923Z,36.83
2023-02-11T12:08:14.412Z,37.35
2023-02-11T12:13:42.399Z,36.88
2023-02-11T12:18:56.084Z,36.85
2023-02-11T12:24:40.565Z,34.55
2023-02-11T12:30:03.996Z,35.95
2023-02-11T12:35:40.108Z,32.17
2023-02-11T12:41:39.685Z,33.63
2023-02-11T12:46:52.211Z,31.35
2023-02-11T12:52:44.292Z,33.22
2023-02-11T12:57:48.893Z,33.13
2023-02-11T13:03:01.512Z,33.15
2023-02-11T13:08:11.099Z,28.77
2023-02-11T13:13:33.160Z,29.52
2023-02-11T13:18:40.607Z,28.63
2023-02-11T13:23:45.160Z,28.55
2023-02-11T13:29:09.961Z,28.45
2023-02-11T13:34:41.000Z,31.17
2023-02-11T13:39:42.710Z,32.13
2023-02-11T13:44:44.504Z,29.33
2023-02-11T13:49:53.454Z,39.22
2023-02-11T13:54:59.453Z,26.50
2023-02-11T14:00:26.050Z,29.55
2023-02-11T14:05:50.752Z,25.67
2023-02-11T14:10:54.141Z,29.42
2023-02-11T14:16:11.153Z,25.02
2023-02-11T14:21:28.924Z,26.02
2023-02-11T14:26:47.320Z,24.73
2023-02-11T14:32:13.113Z,28.80
2023-02-11T14:37:19.464Z,30.95
2023-02-11T14:42:26.888Z,29.55
2023-02-11T14:47:41.944Z,32.03
2023-02-11T14:52:44.567Z,47.78
2023-02-11T14:57:49.662Z,29.13
2023-02-11T15:02:51.796Z,26.33
2023-02-11T15:08:00.788Z,32.58
2023-02-11T15:13:05.906Z,27.92
2023-02-11T15:18:09.672Z,28.48
2023-02-11T15:23:21.749Z,27.83
2023-02-11T15:28:26.806Z,26.40
2023-02-11T15:33:30.700Z,28.67
2023-02-11T15:38:32.613Z,29.38
2023-02-11T15:43:46.352Z,26.85
2023-02-11T15:48:51.390Z,28.17
2023-02-11T15:53:57.099Z,27.63
2023-02-11T15:59:09.276Z,27.80
2023-02-11T16:04:27.231Z,26.50
2023-02-11T16:09:35.303Z,28.75
2023-02-11T16:14:39.686Z,30.23
2023-02-11T16:19:47.407Z,27.58
2023-02-11T16:24:51.232Z,30.02
2023-02-11T16:29:53.207Z,29.00
2023-02-11T16:34:57.986Z,30.17
2023-02-11T16:39:59.668Z,31.67
2023-02-11T16:45:01.348Z,28.45
2023-02-11T16:50:04.488Z,31.02
2023-02-11T16:55:06.721Z,29.23
2023-02-11T17:00:08.988Z,31.67
2023-02-11T17:05:26.062Z,30.75
2023-02-11T17:10:27.739Z,35.90
2023-02-11T17:15:29.401Z,39.60
2023-02-11T17:20:31.079Z,31.42
2023-02-11T17:25:32.799Z,31.08
2023-02-11T17:30:34.598Z,34.00
2023-02-11T17:35:39.397Z,33.33
2023-02-11T17:40:41.015Z,38.00
2023-02-11T17:45:42.820Z,33.47
2023-02-11T17:50:44.606Z,39.53
2023-02-11T17:55:46.190Z,32.75
2023-02-11T18:00:47.980Z,37.85
2023-02-11T18:05:50.166Z,38.13
2023-02-11T18:10:52.007Z,36.15
2023-02-11T18:15:53.855Z,41.63
2023-02-11T18:20:57.318Z,41.40
2023-02-11T18:25:58.953Z,42.67
2023-02-11T18:31:01.804Z,47.13
2023-02-11T18:36:12.513Z,39.33
2023-02-11T18:41:14.627Z,42.08
2023-02-11T18:46:16.781Z,42.10
2023-02-11T18:51:18.801Z,48.83
2023-02-11T18:56:23.469Z,47.17
2023-02-11T19:01:27.630Z,41.15
2023-02-11T19:06:32.482Z,39.97
2023-02-11T19:11:54.789Z,37.70
2023-02-11T19:16:58.573Z,36.92
2023-02-11T19:22:03.227Z,41.15
2023-02-11T19:27:05.303Z,37.55
2023-02-11T19:32:07.424Z,39.80
2023-02-11T19:37:12.711Z,39.33
2023-02-11T19:42:15.237Z,43.15
2023-02-11T19:47:16.953Z,53.17
2023-02-11T19:52:18.600Z,60.03
2023-02-11T19:57:20.217Z,49.90
2023-02-11T20:02:22.000Z,55.88
2023-02-11T20:07:23.742Z,44.72
2023-02-11T20:12:25.472Z,43.22
2023-02-11T20:17:27.238Z,39.38
2023-02-11T20:22:28.921Z,41.28
2023-02-11T20:27:32.338Z,38.75
2023-02-11T20:32:38.142Z,40.28
2023-02-11T20:37:42.231Z,46.47
2023-02-11T20:42:45.433Z,38.38
2023-02-11T20:47:47.493Z,47.42
2023-02-11T20:52:49.142Z,41.47
2023-02-11T20:57:50.964Z,46.42
2023-02-11T21:02:53.482Z,46.85
2023-02-11T21:07:55.193Z,41.22
2023-02-11T21:12:57.125Z,43.60
2023-02-11T21:17:58.966Z,40.70
2023-02-11T21:23:00.562Z,44.05
2023-02-11T21:28:02.184Z,41.95
2023-02-11T21:33:03.980Z,46.70
2023-02-11T21:38:05.699Z,43.42
2023-02-11T21:43:07.505Z,43.97
2023-02-11T21:48:09.105Z,44.13
2023-02-11T21:53:12.016Z,45.28
2023-02-11T21:58:14.035Z,40.42
2023-02-11T22:03:15.679Z,43.00
2023-02-11T22:08:19.850Z,42.92
2023-02-11T22:13:22.017Z,39.72
2023-02-11T22:18:23.720Z,38.75
2023-02-11T22:23:25.327Z,39.72
2023-02-11T22:28:27.113Z,41.95
2023-02-11T22:33:28.925Z,40.33
2023-02-11T22:38:31.314Z,41.05
2023-02-11T22:43:32.928Z,40.20
2023-02-11T22:48:36.031Z,38.88
2023-02-11T22:53:37.800Z,42.00
2023-02-11T22:58:39.570Z,39.35
2023-02-11T23:03:41.330Z,40.20
2023-02-11T23:08:43.394Z,36.05
2023-02-11T23:13:46.408Z,43.42
2023-02-11T23:18:49.325Z,42.78
2023-02-11T23:23:58.610Z,39.28
2023-02-11T23:29:00.265Z,42.25
2023-02-11T23:34:01.855Z,39.40
2023-02-11T23:39:04.452Z,42.70
2023-02-11T23:44:06.074Z,43.63
2023-02-11T23:49:07.700Z,45.03
2023-02-11T23:54:13.284Z,41.53
2023-02-11T23:59:14.974Z,38.60
